Terminal Aerodrome Forecast
Issued by NWS

Home | Current Version | Previous Version | Text Only | Print | Product List | Glossary On
Versions: 1 2 3 4 5 6 7 8 9 10 11 12 13 14 15 16
000
FTUS43 KILX 022300
TAFCMI
TAF
KCMI 022338Z 0300/0324 13006KT P6SM OVC090
     FM030800 14010KT P6SM OVC040
     FM031000 15011KT 3SM -FZRAPL BR OVC005
     FM031600 19014G22KT 4SM -RA BR OVC007=

USA.gov is the U.S. government's official web portal to all federal, state and local government web resources and services.